sensor_id;sensor_type;location;lat;lon;timestamp;P1;durP1;ratioP1;P2;durP2;ratioP2
3433;SDS011;1730;41.932;25.548;2022-08-19T00:01:50;10.57;;;9.70;;
3433;SDS011;1730;41.932;25.548;2022-08-19T00:04:17;12.90;;;10.20;;
3433;SDS011;1730;41.932;25.548;2022-08-19T00:06:44;23.13;;;11.97;;
3433;SDS011;1730;41.932;25.548;2022-08-19T00:09:12;10.47;;;9.57;;
3433;SDS011;1730;41.932;25.548;2022-08-19T00:11:40;12.30;;;10.90;;
3433;SDS011;1730;41.932;25.548;2022-08-19T00:14:08;11.40;;;10.37;;
3433;SDS011;1730;41.932;25.548;2022-08-19T00:16:37;11.80;;;10.60;;
3433;SDS011;1730;41.932;25.548;2022-08-19T00:19:03;11.20;;;10.07;;
3433;SDS011;1730;41.932;25.548;2022-08-19T00:21:29;13.67;;;10.17;;
3433;SDS011;1730;41.932;25.548;2022-08-19T00:23:55;11.87;;;10.20;;
3433;SDS011;1730;41.932;25.548;2022-08-19T00:26:26;12.23;;;9.53;;
3433;SDS011;1730;41.932;25.548;2022-08-19T00:28:53;10.80;;;9.97;;
3433;SDS011;1730;41.932;25.548;2022-08-19T00:31:19;10.43;;;9.53;;
3433;SDS011;1730;41.932;25.548;2022-08-19T00:33:44;10.20;;;9.40;;
3433;SDS011;1730;41.932;25.548;2022-08-19T00:36:10;14.83;;;10.90;;
3433;SDS011;1730;41.932;25.548;2022-08-19T00:38:37;10.50;;;9.50;;
3433;SDS011;1730;41.932;25.548;2022-08-19T00:41:08;10.73;;;9.90;;
3433;SDS011;1730;41.932;25.548;2022-08-19T00:43:37;10.90;;;9.90;;
3433;SDS011;1730;41.932;25.548;2022-08-19T00:46:04;10.60;;;9.50;;
3433;SDS011;1730;41.932;25.548;2022-08-19T00:48:30;11.47;;;10.10;;
3433;SDS011;1730;41.932;25.548;2022-08-19T00:50:57;16.63;;;9.57;;
3433;SDS011;1730;41.932;25.548;2022-08-19T00:53:24;12.03;;;10.17;;
3433;SDS011;1730;41.932;25.548;2022-08-19T00:55:53;11.07;;;10.00;;
3433;SDS011;1730;41.932;25.548;2022-08-19T00:58:22;10.23;;;9.23;;
3433;SDS011;1730;41.932;25.548;2022-08-19T01:00:52;10.97;;;10.03;;
3433;SDS011;1730;41.932;25.548;2022-08-19T01:03:18;10.73;;;9.20;;
3433;SDS011;1730;41.932;25.548;2022-08-19T01:05:45;10.37;;;9.47;;
3433;SDS011;1730;41.932;25.548;2022-08-19T01:08:13;11.07;;;9.67;;
3433;SDS011;1730;41.932;25.548;2022-08-19T01:10:42;11.33;;;10.30;;
3433;SDS011;1730;41.932;25.548;2022-08-19T01:13:11;11.33;;;10.33;;
3433;SDS011;1730;41.932;25.548;2022-08-19T01:15:40;11.20;;;10.00;;
3433;SDS011;1730;41.932;25.548;2022-08-19T01:18:10;12.33;;;10.50;;
3433;SDS011;1730;41.932;25.548;2022-08-19T01:20:37;11.80;;;10.70;;
3433;SDS011;1730;41.932;25.548;2022-08-19T01:23:04;10.77;;;9.83;;
3433;SDS011;1730;41.932;25.548;2022-08-19T01:25:35;12.13;;;10.30;;
3433;SDS011;1730;41.932;25.548;2022-08-19T01:28:06;11.77;;;10.67;;
3433;SDS011;1730;41.932;25.548;2022-08-19T01:30:34;11.13;;;10.23;;
3433;SDS011;1730;41.932;25.548;2022-08-19T01:33:00;11.97;;;10.50;;
3433;SDS011;1730;41.932;25.548;2022-08-19T01:35:28;11.10;;;10.10;;
3433;SDS011;1730;41.932;25.548;2022-08-19T01:37:59;13.43;;;10.83;;
3433;SDS011;1730;41.932;25.548;2022-08-19T01:40:31;12.53;;;11.30;;
3433;SDS011;1730;41.932;25.548;2022-08-19T01:42:58;12.00;;;10.80;;
3433;SDS011;1730;41.932;25.548;2022-08-19T01:45:26;13.00;;;11.20;;
3433;SDS011;1730;41.932;25.548;2022-08-19T01:47:54;11.53;;;10.33;;
3433;SDS011;1730;41.932;25.548;2022-08-19T01:50:21;11.63;;;10.50;;
3433;SDS011;1730;41.932;25.548;2022-08-19T01:52:47;11.63;;;9.90;;
3433;SDS011;1730;41.932;25.548;2022-08-19T01:55:14;18.47;;;11.07;;
3433;SDS011;1730;41.932;25.548;2022-08-19T01:57:43;11.23;;;10.33;;
3433;SDS011;1730;41.932;25.548;2022-08-19T02:00:13;11.57;;;10.37;;
3433;SDS011;1730;41.932;25.548;2022-08-19T02:02:41;12.87;;;11.50;;
3433;SDS011;1730;41.932;25.548;2022-08-19T02:05:07;11.50;;;10.60;;
3433;SDS011;1730;41.932;25.548;2022-08-19T02:07:34;10.90;;;9.60;;
3433;SDS011;1730;41.932;25.548;2022-08-19T02:10:04;12.13;;;10.00;;
3433;SDS011;1730;41.932;25.548;2022-08-19T02:12:32;11.40;;;10.30;;
3433;SDS011;1730;41.932;25.548;2022-08-19T02:14:58;11.77;;;10.70;;
3433;SDS011;1730;41.932;25.548;2022-08-19T02:17:26;12.63;;;11.47;;
3433;SDS011;1730;41.932;25.548;2022-08-19T02:19:53;12.77;;;11.60;;
3433;SDS011;1730;41.932;25.548;2022-08-19T02:22:19;10.83;;;10.00;;
3433;SDS011;1730;41.932;25.548;2022-08-19T02:24:44;11.93;;;10.87;;
3433;SDS011;1730;41.932;25.548;2022-08-19T02:27:10;15.00;;;10.70;;
3433;SDS011;1730;41.932;25.548;2022-08-19T02:29:36;11.93;;;10.83;;
3433;SDS011;1730;41.932;25.548;2022-08-19T02:32:01;11.30;;;10.40;;
3433;SDS011;1730;41.932;25.548;2022-08-19T02:34:27;15.57;;;12.27;;
3433;SDS011;1730;41.932;25.548;2022-08-19T02:36:53;12.70;;;11.30;;
3433;SDS011;1730;41.932;25.548;2022-08-19T02:39:18;14.80;;;11.50;;
3433;SDS011;1730;41.932;25.548;2022-08-19T02:41:44;15.30;;;12.33;;
3433;SDS011;1730;41.932;25.548;2022-08-19T02:44:10;13.70;;;10.90;;
3433;SDS011;1730;41.932;25.548;2022-08-19T02:46:37;12.20;;;11.10;;
3433;SDS011;1730;41.932;25.548;2022-08-19T02:49:06;12.53;;;10.53;;
3433;SDS011;1730;41.932;25.548;2022-08-19T02:51:34;11.77;;;10.87;;
3433;SDS011;1730;41.932;25.548;2022-08-19T02:54:03;11.77;;;10.67;;
3433;SDS011;1730;41.932;25.548;2022-08-19T02:56:30;12.30;;;11.40;;
3433;SDS011;1730;41.932;25.548;2022-08-19T02:58:56;12.17;;;11.03;;
3433;SDS011;1730;41.932;25.548;2022-08-19T03:01:23;12.03;;;10.90;;
3433;SDS011;1730;41.932;25.548;2022-08-19T03:03:51;11.97;;;11.00;;
3433;SDS011;1730;41.932;25.548;2022-08-19T03:06:17;14.97;;;11.33;;
3433;SDS011;1730;41.932;25.548;2022-08-19T03:08:43;15.73;;;11.47;;
3433;SDS011;1730;41.932;25.548;2022-08-19T03:13:45;17.50;;;12.30;;
3433;SDS011;1730;41.932;25.548;2022-08-19T03:16:12;18.60;;;12.10;;
3433;SDS011;1730;41.932;25.548;2022-08-19T03:18:37;14.67;;;10.73;;
3433;SDS011;1730;41.932;25.548;2022-08-19T03:21:03;12.80;;;11.50;;
3433;SDS011;1730;41.932;25.548;2022-08-19T03:23:29;12.10;;;11.10;;
3433;SDS011;1730;41.932;25.548;2022-08-19T03:25:55;12.67;;;11.57;;
3433;SDS011;1730;41.932;25.548;2022-08-19T03:28:20;13.57;;;12.10;;
3433;SDS011;1730;41.932;25.548;2022-08-19T03:30:59;14.17;;;12.30;;
3433;SDS011;1730;41.932;25.548;2022-08-19T03:33:30;14.80;;;12.03;;
3433;SDS011;1730;41.932;25.548;2022-08-19T03:36:00;12.63;;;11.43;;
3433;SDS011;1730;41.932;25.548;2022-08-19T03:38:49;14.23;;;12.83;;
3433;SDS011;1730;41.932;25.548;2022-08-19T03:41:18;17.77;;;11.03;;
3433;SDS011;1730;41.932;25.548;2022-08-19T03:43:46;12.73;;;11.53;;
3433;SDS011;1730;41.932;25.548;2022-08-19T03:46:14;15.80;;;12.23;;
3433;SDS011;1730;41.932;25.548;2022-08-19T03:48:42;13.17;;;11.57;;
3433;SDS011;1730;41.932;25.548;2022-08-19T03:51:19;13.73;;;12.47;;
3433;SDS011;1730;41.932;25.548;2022-08-19T03:53:47;13.00;;;11.80;;
3433;SDS011;1730;41.932;25.548;2022-08-19T03:56:13;13.37;;;12.20;;
3433;SDS011;1730;41.932;25.548;2022-08-19T03:58:40;13.93;;;12.53;;
3433;SDS011;1730;41.932;25.548;2022-08-19T04:01:09;16.70;;;14.40;;
3433;SDS011;1730;41.932;25.548;2022-08-19T04:03:36;21.10;;;15.90;;
3433;SDS011;1730;41.932;25.548;2022-08-19T04:06:15;22.50;;;16.00;;
3433;SDS011;1730;41.932;25.548;2022-08-19T04:08:41;17.87;;;15.90;;
3433;SDS011;1730;41.932;25.548;2022-08-19T04:11:09;16.30;;;14.23;;
3433;SDS011;1730;41.932;25.548;2022-08-19T04:13:37;16.13;;;13.80;;
3433;SDS011;1730;41.932;25.548;2022-08-19T04:16:03;14.80;;;12.87;;
3433;SDS011;1730;41.932;25.548;2022-08-19T04:18:29;14.60;;;12.13;;
3433;SDS011;1730;41.932;25.548;2022-08-19T04:20:56;15.63;;;11.53;;
3433;SDS011;1730;41.932;25.548;2022-08-19T04:23:22;12.03;;;10.83;;
3433;SDS011;1730;41.932;25.548;2022-08-19T04:25:48;15.93;;;10.73;;
3433;SDS011;1730;41.932;25.548;2022-08-19T04:28:14;16.10;;;11.70;;
3433;SDS011;1730;41.932;25.548;2022-08-19T04:30:40;12.23;;;11.17;;
3433;SDS011;1730;41.932;25.548;2022-08-19T04:33:10;20.10;;;12.07;;
3433;SDS011;1730;41.932;25.548;2022-08-19T04:35:37;18.00;;;12.27;;
3433;SDS011;1730;41.932;25.548;2022-08-19T04:38:08;13.50;;;12.20;;
3433;SDS011;1730;41.932;25.548;2022-08-19T04:40:39;12.77;;;11.57;;
3433;SDS011;1730;41.932;25.548;2022-08-19T04:43:24;17.20;;;11.70;;
3433;SDS011;1730;41.932;25.548;2022-08-19T04:45:50;19.33;;;11.50;;
3433;SDS011;1730;41.932;25.548;2022-08-19T04:48:16;15.20;;;11.17;;
3433;SDS011;1730;41.932;25.548;2022-08-19T04:50:55;15.80;;;10.77;;
3433;SDS011;1730;41.932;25.548;2022-08-19T04:53:26;13.80;;;11.00;;
3433;SDS011;1730;41.932;25.548;2022-08-19T04:55:56;12.47;;;10.20;;
3433;SDS011;1730;41.932;25.548;2022-08-19T04:58:26;15.07;;;11.10;;
3433;SDS011;1730;41.932;25.548;2022-08-19T05:00:53;10.90;;;9.80;;
3433;SDS011;1730;41.932;25.548;2022-08-19T05:03:19;11.87;;;10.70;;
3433;SDS011;1730;41.932;25.548;2022-08-19T05:05:46;11.40;;;10.30;;
3433;SDS011;1730;41.932;25.548;2022-08-19T05:08:17;11.40;;;10.33;;
3433;SDS011;1730;41.932;25.548;2022-08-19T05:10:45;15.00;;;10.83;;
3433;SDS011;1730;41.932;25.548;2022-08-19T05:13:13;11.83;;;9.57;;
3433;SDS011;1730;41.932;25.548;2022-08-19T05:15:41;11.17;;;10.20;;
3433;SDS011;1730;41.932;25.548;2022-08-19T05:18:07;15.10;;;9.77;;
3433;SDS011;1730;41.932;25.548;2022-08-19T05:20:51;12.37;;;10.50;;
3433;SDS011;1730;41.932;25.548;2022-08-19T05:23:36;11.57;;;9.73;;
3433;SDS011;1730;41.932;25.548;2022-08-19T05:26:01;12.53;;;10.30;;
3433;SDS011;1730;41.932;25.548;2022-08-19T05:28:28;13.13;;;9.30;;
3433;SDS011;1730;41.932;25.548;2022-08-19T05:30:53;11.47;;;10.40;;
3433;SDS011;1730;41.932;25.548;2022-08-19T05:33:21;14.40;;;8.93;;
3433;SDS011;1730;41.932;25.548;2022-08-19T05:35:47;10.80;;;9.80;;
3433;SDS011;1730;41.932;25.548;2022-08-19T05:38:14;11.17;;;9.30;;
3433;SDS011;1730;41.932;25.548;2022-08-19T05:40:41;11.13;;;9.20;;
3433;SDS011;1730;41.932;25.548;2022-08-19T05:43:14;4.80;;;4.60;;
3433;SDS011;1730;41.932;25.548;2022-08-19T05:45:41;10.47;;;8.97;;
3433;SDS011;1730;41.932;25.548;2022-08-19T05:48:09;9.30;;;8.60;;
3433;SDS011;1730;41.932;25.548;2022-08-19T05:50:37;9.33;;;8.43;;
3433;SDS011;1730;41.932;25.548;2022-08-19T05:53:06;9.90;;;9.00;;
3433;SDS011;1730;41.932;25.548;2022-08-19T05:55:36;11.60;;;9.80;;
3433;SDS011;1730;41.932;25.548;2022-08-19T05:58:03;10.67;;;8.73;;
3433;SDS011;1730;41.932;25.548;2022-08-19T06:00:42;10.97;;;9.90;;
3433;SDS011;1730;41.932;25.548;2022-08-19T06:03:08;11.23;;;9.10;;
3433;SDS011;1730;41.932;25.548;2022-08-19T06:05:35;15.83;;;8.57;;
3433;SDS011;1730;41.932;25.548;2022-08-19T06:08:01;9.87;;;8.73;;
3433;SDS011;1730;41.932;25.548;2022-08-19T06:10:27;13.20;;;8.93;;
3433;SDS011;1730;41.932;25.548;2022-08-19T06:12:53;14.97;;;9.50;;
3433;SDS011;1730;41.932;25.548;2022-08-19T06:15:19;16.10;;;8.73;;
3433;SDS011;1730;41.932;25.548;2022-08-19T06:17:46;9.33;;;8.40;;
3433;SDS011;1730;41.932;25.548;2022-08-19T06:20:13;8.63;;;7.93;;
3433;SDS011;1730;41.932;25.548;2022-08-19T06:22:40;11.10;;;9.30;;
3433;SDS011;1730;41.932;25.548;2022-08-19T06:25:07;9.77;;;8.73;;
3433;SDS011;1730;41.932;25.548;2022-08-19T06:27:34;10.27;;;9.20;;
3433;SDS011;1730;41.932;25.548;2022-08-19T06:30:00;14.00;;;10.17;;
3433;SDS011;1730;41.932;25.548;2022-08-19T06:32:27;10.50;;;9.50;;
3433;SDS011;1730;41.932;25.548;2022-08-19T06:34:52;9.23;;;8.43;;
3433;SDS011;1730;41.932;25.548;2022-08-19T06:37:18;9.00;;;8.20;;
3433;SDS011;1730;41.932;25.548;2022-08-19T06:39:46;8.60;;;7.80;;
3433;SDS011;1730;41.932;25.548;2022-08-19T06:42:13;19.93;;;8.50;;
3433;SDS011;1730;41.932;25.548;2022-08-19T06:44:42;9.77;;;8.73;;
3433;SDS011;1730;41.932;25.548;2022-08-19T06:47:11;10.53;;;9.40;;
3433;SDS011;1730;41.932;25.548;2022-08-19T06:49:39;9.97;;;9.07;;
3433;SDS011;1730;41.932;25.548;2022-08-19T06:52:05;10.60;;;9.33;;
3433;SDS011;1730;41.932;25.548;2022-08-19T06:54:31;10.20;;;9.10;;
3433;SDS011;1730;41.932;25.548;2022-08-19T06:56:58;12.17;;;9.40;;
3433;SDS011;1730;41.932;25.548;2022-08-19T06:59:27;10.63;;;9.77;;
3433;SDS011;1730;41.932;25.548;2022-08-19T07:01:55;10.17;;;8.80;;
3433;SDS011;1730;41.932;25.548;2022-08-19T07:04:23;22.20;;;10.00;;
3433;SDS011;1730;41.932;25.548;2022-08-19T07:06:55;9.60;;;8.70;;
3433;SDS011;1730;41.932;25.548;2022-08-19T07:09:32;13.73;;;9.13;;
3433;SDS011;1730;41.932;25.548;2022-08-19T07:11:58;15.20;;;9.77;;
3433;SDS011;1730;41.932;25.548;2022-08-19T07:14:25;15.77;;;9.53;;
3433;SDS011;1730;41.932;25.548;2022-08-19T07:16:52;11.67;;;9.10;;
3433;SDS011;1730;41.932;25.548;2022-08-19T07:19:20;10.63;;;9.43;;
3433;SDS011;1730;41.932;25.548;2022-08-19T07:21:49;10.50;;;9.50;;
3433;SDS011;1730;41.932;25.548;2022-08-19T07:24:18;11.10;;;9.30;;
3433;SDS011;1730;41.932;25.548;2022-08-19T07:26:47;13.60;;;10.37;;
3433;SDS011;1730;41.932;25.548;2022-08-19T07:29:13;10.13;;;9.30;;
3433;SDS011;1730;41.932;25.548;2022-08-19T07:31:38;10.97;;;9.40;;
3433;SDS011;1730;41.932;25.548;2022-08-19T07:34:06;12.60;;;9.90;;
3433;SDS011;1730;41.932;25.548;2022-08-19T07:36:34;13.87;;;9.93;;
3433;SDS011;1730;41.932;25.548;2022-08-19T07:39:04;12.53;;;9.60;;
3433;SDS011;1730;41.932;25.548;2022-08-19T07:41:32;10.10;;;9.10;;
3433;SDS011;1730;41.932;25.548;2022-08-19T07:44:02;11.70;;;8.53;;
3433;SDS011;1730;41.932;25.548;2022-08-19T07:46:33;9.50;;;8.57;;
3433;SDS011;1730;41.932;25.548;2022-08-19T07:49:01;9.30;;;8.40;;
3433;SDS011;1730;41.932;25.548;2022-08-19T07:51:27;12.93;;;9.20;;
3433;SDS011;1730;41.932;25.548;2022-08-19T07:53:53;17.83;;;9.00;;
3433;SDS011;1730;41.932;25.548;2022-08-19T07:56:19;11.17;;;10.10;;
3433;SDS011;1730;41.932;25.548;2022-08-19T07:58:48;11.10;;;10.10;;
3433;SDS011;1730;41.932;25.548;2022-08-19T08:01:19;9.73;;;8.93;;
3433;SDS011;1730;41.932;25.548;2022-08-19T08:03:47;11.90;;;10.17;;
3433;SDS011;1730;41.932;25.548;2022-08-19T08:06:33;11.23;;;10.03;;
3433;SDS011;1730;41.932;25.548;2022-08-19T08:09:26;10.37;;;9.47;;
3433;SDS011;1730;41.932;25.548;2022-08-19T08:11:59;10.73;;;9.83;;
3433;SDS011;1730;41.932;25.548;2022-08-19T08:14:42;11.73;;;10.57;;
3433;SDS011;1730;41.932;25.548;2022-08-19T08:17:14;10.60;;;9.30;;
3433;SDS011;1730;41.932;25.548;2022-08-19T08:19:49;10.40;;;9.60;;
3433;SDS011;1730;41.932;25.548;2022-08-19T08:22:16;16.07;;;10.10;;
3433;SDS011;1730;41.932;25.548;2022-08-19T08:25:07;12.70;;;8.80;;
3433;SDS011;1730;41.932;25.548;2022-08-19T08:27:45;17.33;;;10.30;;
3433;SDS011;1730;41.932;25.548;2022-08-19T08:30:14;10.00;;;9.30;;
3433;SDS011;1730;41.932;25.548;2022-08-19T08:32:45;11.50;;;9.47;;
3433;SDS011;1730;41.932;25.548;2022-08-19T08:35:12;10.60;;;9.50;;
3433;SDS011;1730;41.932;25.548;2022-08-19T08:37:42;10.37;;;9.43;;
3433;SDS011;1730;41.932;25.548;2022-08-19T08:40:13;11.53;;;9.50;;
3433;SDS011;1730;41.932;25.548;2022-08-19T08:42:45;10.50;;;9.40;;
3433;SDS011;1730;41.932;25.548;2022-08-19T08:45:41;19.17;;;9.70;;
3433;SDS011;1730;41.932;25.548;2022-08-19T08:48:19;12.20;;;10.07;;
3433;SDS011;1730;41.932;25.548;2022-08-19T08:50:49;13.93;;;9.43;;
3433;SDS011;1730;41.932;25.548;2022-08-19T08:53:19;10.33;;;9.27;;
3433;SDS011;1730;41.932;25.548;2022-08-19T08:55:47;10.60;;;9.43;;
3433;SDS011;1730;41.932;25.548;2022-08-19T08:58:14;10.63;;;9.70;;
3433;SDS011;1730;41.932;25.548;2022-08-19T09:00:50;9.87;;;8.97;;
3433;SDS011;1730;41.932;25.548;2022-08-19T09:03:18;10.13;;;9.43;;
3433;SDS011;1730;41.932;25.548;2022-08-19T09:09:27;10.37;;;9.37;;
3433;SDS011;1730;41.932;25.548;2022-08-19T09:16:59;10.23;;;9.33;;
3433;SDS011;1730;41.932;25.548;2022-08-19T09:19:28;9.53;;;8.87;;
3433;SDS011;1730;41.932;25.548;2022-08-19T09:21:54;10.17;;;8.87;;
3433;SDS011;1730;41.932;25.548;2022-08-19T09:24:20;9.47;;;8.77;;
3433;SDS011;1730;41.932;25.548;2022-08-19T09:26:46;10.00;;;9.30;;
3433;SDS011;1730;41.932;25.548;2022-08-19T09:29:12;10.00;;;9.10;;
3433;SDS011;1730;41.932;25.548;2022-08-19T09:31:38;9.30;;;8.60;;
3433;SDS011;1730;41.932;25.548;2022-08-19T09:34:03;9.10;;;8.17;;
3433;SDS011;1730;41.932;25.548;2022-08-19T09:36:29;9.33;;;8.43;;
3433;SDS011;1730;41.932;25.548;2022-08-19T09:38:58;9.27;;;8.30;;
3433;SDS011;1730;41.932;25.548;2022-08-19T09:41:25;9.73;;;8.70;;
3433;SDS011;1730;41.932;25.548;2022-08-19T09:43:53;9.13;;;8.43;;
3433;SDS011;1730;41.932;25.548;2022-08-19T09:46:21;9.33;;;8.00;;
3433;SDS011;1730;41.932;25.548;2022-08-19T09:48:49;8.40;;;7.70;;
3433;SDS011;1730;41.932;25.548;2022-08-19T09:51:26;13.93;;;8.37;;
3433;SDS011;1730;41.932;25.548;2022-08-19T09:53:54;9.40;;;8.53;;
3433;SDS011;1730;41.932;25.548;2022-08-19T09:56:23;10.93;;;8.23;;
3433;SDS011;1730;41.932;25.548;2022-08-19T09:58:49;13.77;;;9.27;;
3433;SDS011;1730;41.932;25.548;2022-08-19T10:01:19;19.50;;;8.70;;
3433;SDS011;1730;41.932;25.548;2022-08-19T10:03:52;10.23;;;8.07;;
3433;SDS011;1730;41.932;25.548;2022-08-19T10:06:20;8.67;;;7.90;;
3433;SDS011;1730;41.932;25.548;2022-08-19T10:17:53;8.00;;;7.40;;
3433;SDS011;1730;41.932;25.548;2022-08-19T10:20:19;10.00;;;7.13;;
3433;SDS011;1730;41.932;25.548;2022-08-19T10:22:45;7.70;;;7.30;;
3433;SDS011;1730;41.932;25.548;2022-08-19T10:25:10;8.33;;;7.63;;
3433;SDS011;1730;41.932;25.548;2022-08-19T10:27:37;10.93;;;7.97;;
3433;SDS011;1730;41.932;25.548;2022-08-19T10:30:03;7.17;;;6.70;;
3433;SDS011;1730;41.932;25.548;2022-08-19T10:32:35;8.03;;;7.17;;
3433;SDS011;1730;41.932;25.548;2022-08-19T10:35:11;8.20;;;7.50;;
3433;SDS011;1730;41.932;25.548;2022-08-19T10:40:49;7.63;;;7.13;;
3433;SDS011;1730;41.932;25.548;2022-08-19T10:43:19;7.30;;;6.70;;
3433;SDS011;1730;41.932;25.548;2022-08-19T10:45:48;8.47;;;7.77;;
3433;SDS011;1730;41.932;25.548;2022-08-19T10:48:19;9.07;;;7.33;;
3433;SDS011;1730;41.932;25.548;2022-08-19T10:50:47;7.60;;;7.00;;
3433;SDS011;1730;41.932;25.548;2022-08-19T10:53:31;8.37;;;7.40;;
3433;SDS011;1730;41.932;25.548;2022-08-19T10:55:57;7.43;;;6.93;;
3433;SDS011;1730;41.932;25.548;2022-08-19T10:58:43;7.93;;;7.20;;
3433;SDS011;1730;41.932;25.548;2022-08-19T11:01:10;8.27;;;7.77;;
3433;SDS011;1730;41.932;25.548;2022-08-19T11:03:39;8.87;;;8.17;;
3433;SDS011;1730;41.932;25.548;2022-08-19T11:06:08;8.87;;;8.00;;
3433;SDS011;1730;41.932;25.548;2022-08-19T11:14:01;8.73;;;7.90;;
3433;SDS011;1730;41.932;25.548;2022-08-19T11:16:29;8.93;;;8.37;;
3433;SDS011;1730;41.932;25.548;2022-08-19T11:24:24;8.90;;;8.20;;
3433;SDS011;1730;41.932;25.548;2022-08-19T11:26:54;8.30;;;7.90;;
3433;SDS011;1730;41.932;25.548;2022-08-19T11:29:33;8.10;;;7.60;;
3433;SDS011;1730;41.932;25.548;2022-08-19T11:31:59;8.77;;;8.17;;
3433;SDS011;1730;41.932;25.548;2022-08-19T11:34:29;8.20;;;7.60;;
3433;SDS011;1730;41.932;25.548;2022-08-19T11:42:42;11.20;;;7.70;;
3433;SDS011;1730;41.932;25.548;2022-08-19T11:45:22;8.90;;;8.30;;
3433;SDS011;1730;41.932;25.548;2022-08-19T11:47:50;8.40;;;7.77;;
3433;SDS011;1730;41.932;25.548;2022-08-19T11:50:16;8.40;;;7.90;;
3433;SDS011;1730;41.932;25.548;2022-08-19T11:52:42;8.03;;;7.53;;
3433;SDS011;1730;41.932;25.548;2022-08-19T11:55:14;8.70;;;8.03;;
3433;SDS011;1730;41.932;25.548;2022-08-19T11:57:41;8.00;;;7.27;;
3433;SDS011;1730;41.932;25.548;2022-08-19T12:00:08;9.80;;;7.97;;
3433;SDS011;1730;41.932;25.548;2022-08-19T12:02:37;19.07;;;9.20;;
3433;SDS011;1730;41.932;25.548;2022-08-19T12:05:04;8.10;;;7.50;;
3433;SDS011;1730;41.932;25.548;2022-08-19T12:07:31;7.90;;;7.50;;
3433;SDS011;1730;41.932;25.548;2022-08-19T12:09:58;9.37;;;8.63;;
3433;SDS011;1730;41.932;25.548;2022-08-19T12:12:24;8.63;;;8.10;;
3433;SDS011;1730;41.932;25.548;2022-08-19T12:14:56;10.10;;;9.40;;
3433;SDS011;1730;41.932;25.548;2022-08-19T12:17:34;8.80;;;8.10;;
3433;SDS011;1730;41.932;25.548;2022-08-19T12:19:59;8.67;;;8.00;;
3433;SDS011;1730;41.932;25.548;2022-08-19T12:22:25;8.10;;;7.70;;
3433;SDS011;1730;41.932;25.548;2022-08-19T12:24:51;9.33;;;8.60;;
3433;SDS011;1730;41.932;25.548;2022-08-19T12:27:18;8.73;;;8.00;;
3433;SDS011;1730;41.932;25.548;2022-08-19T12:29:44;9.73;;;9.10;;
3433;SDS011;1730;41.932;25.548;2022-08-19T12:32:10;7.10;;;6.80;;
3433;SDS011;1730;41.932;25.548;2022-08-19T12:34:35;9.30;;;8.70;;
3433;SDS011;1730;41.932;25.548;2022-08-19T12:37:03;7.93;;;7.43;;
3433;SDS011;1730;41.932;25.548;2022-08-19T12:39:36;9.60;;;8.67;;
3433;SDS011;1730;41.932;25.548;2022-08-19T12:42:04;7.87;;;7.17;;
3433;SDS011;1730;41.932;25.548;2022-08-19T12:44:30;11.23;;;8.20;;
3433;SDS011;1730;41.932;25.548;2022-08-19T12:46:59;8.93;;;7.57;;
3433;SDS011;1730;41.932;25.548;2022-08-19T12:49:37;7.63;;;7.23;;
3433;SDS011;1730;41.932;25.548;2022-08-19T12:52:04;8.23;;;7.43;;
3433;SDS011;1730;41.932;25.548;2022-08-19T12:54:32;9.27;;;8.67;;
3433;SDS011;1730;41.932;25.548;2022-08-19T12:56:58;7.97;;;7.47;;
3433;SDS011;1730;41.932;25.548;2022-08-19T12:59:51;7.50;;;7.10;;
3433;SDS011;1730;41.932;25.548;2022-08-19T13:02:18;9.00;;;7.33;;
3433;SDS011;1730;41.932;25.548;2022-08-19T13:05:08;8.30;;;7.60;;
3433;SDS011;1730;41.932;25.548;2022-08-19T13:07:50;7.97;;;7.47;;
3433;SDS011;1730;41.932;25.548;2022-08-19T13:10:31;7.10;;;6.80;;
3433;SDS011;1730;41.932;25.548;2022-08-19T13:13:20;9.37;;;7.37;;
3433;SDS011;1730;41.932;25.548;2022-08-19T13:15:59;7.40;;;6.70;;
3433;SDS011;1730;41.932;25.548;2022-08-19T13:18:32;7.93;;;7.23;;
3433;SDS011;1730;41.932;25.548;2022-08-19T13:21:03;7.77;;;7.07;;
3433;SDS011;1730;41.932;25.548;2022-08-19T13:23:58;7.00;;;6.60;;
3433;SDS011;1730;41.932;25.548;2022-08-19T13:26:25;7.63;;;7.03;;
3433;SDS011;1730;41.932;25.548;2022-08-19T13:28:53;7.53;;;6.93;;
3433;SDS011;1730;41.932;25.548;2022-08-19T13:31:39;6.43;;;6.03;;
3433;SDS011;1730;41.932;25.548;2022-08-19T13:34:30;5.90;;;5.50;;
3433;SDS011;1730;41.932;25.548;2022-08-19T13:37:02;8.30;;;6.10;;
3433;SDS011;1730;41.932;25.548;2022-08-19T13:39:31;6.60;;;6.10;;
3433;SDS011;1730;41.932;25.548;2022-08-19T13:41:57;6.43;;;5.90;;
3433;SDS011;1730;41.932;25.548;2022-08-19T13:44:25;6.40;;;5.87;;
3433;SDS011;1730;41.932;25.548;2022-08-19T13:46:51;7.13;;;6.47;;
3433;SDS011;1730;41.932;25.548;2022-08-19T13:49:19;7.27;;;6.17;;
3433;SDS011;1730;41.932;25.548;2022-08-19T13:51:46;5.20;;;4.90;;
3433;SDS011;1730;41.932;25.548;2022-08-19T13:54:11;4.83;;;4.63;;
3433;SDS011;1730;41.932;25.548;2022-08-19T13:56:41;5.17;;;4.80;;
3433;SDS011;1730;41.932;25.548;2022-08-19T13:59:08;4.80;;;4.50;;
3433;SDS011;1730;41.932;25.548;2022-08-19T14:01:34;6.97;;;4.90;;
3433;SDS011;1730;41.932;25.548;2022-08-19T14:04:01;5.70;;;5.30;;
3433;SDS011;1730;41.932;25.548;2022-08-19T14:06:27;5.40;;;5.00;;
3433;SDS011;1730;41.932;25.548;2022-08-19T14:08:52;5.33;;;5.00;;
3433;SDS011;1730;41.932;25.548;2022-08-19T14:11:18;5.90;;;5.40;;
3433;SDS011;1730;41.932;25.548;2022-08-19T14:13:46;5.23;;;4.83;;
3433;SDS011;1730;41.932;25.548;2022-08-19T14:16:13;5.50;;;5.10;;
3433;SDS011;1730;41.932;25.548;2022-08-19T14:18:40;5.87;;;5.37;;
3433;SDS011;1730;41.932;25.548;2022-08-19T14:21:08;5.83;;;5.37;;
3433;SDS011;1730;41.932;25.548;2022-08-19T14:23:42;5.30;;;4.80;;
3433;SDS011;1730;41.932;25.548;2022-08-19T14:26:09;5.07;;;4.67;;
3433;SDS011;1730;41.932;25.548;2022-08-19T14:28:39;4.80;;;4.60;;
3433;SDS011;1730;41.932;25.548;2022-08-19T14:31:09;5.50;;;5.20;;
3433;SDS011;1730;41.932;25.548;2022-08-19T14:33:36;5.43;;;5.13;;
3433;SDS011;1730;41.932;25.548;2022-08-19T14:36:02;5.23;;;4.90;;
3433;SDS011;1730;41.932;25.548;2022-08-19T14:38:34;5.00;;;4.57;;
3433;SDS011;1730;41.932;25.548;2022-08-19T14:41:12;4.87;;;3.77;;
3433;SDS011;1730;41.932;25.548;2022-08-19T14:43:38;4.83;;;4.60;;
3433;SDS011;1730;41.932;25.548;2022-08-19T14:46:05;4.90;;;4.50;;
3433;SDS011;1730;41.932;25.548;2022-08-19T14:48:33;5.07;;;4.70;;
3433;SDS011;1730;41.932;25.548;2022-08-19T14:50:58;5.50;;;5.10;;
3433;SDS011;1730;41.932;25.548;2022-08-19T14:53:24;5.13;;;4.83;;
3433;SDS011;1730;41.932;25.548;2022-08-19T14:55:55;5.33;;;4.60;;
3433;SDS011;1730;41.932;25.548;2022-08-19T14:58:24;5.20;;;4.80;;
3433;SDS011;1730;41.932;25.548;2022-08-19T15:00:52;4.40;;;4.10;;
3433;SDS011;1730;41.932;25.548;2022-08-19T15:03:18;5.33;;;4.50;;
3433;SDS011;1730;41.932;25.548;2022-08-19T15:05:44;18.03;;;5.53;;
3433;SDS011;1730;41.932;25.548;2022-08-19T15:08:09;5.53;;;5.03;;
3433;SDS011;1730;41.932;25.548;2022-08-19T15:10:35;4.90;;;4.60;;
3433;SDS011;1730;41.932;25.548;2022-08-19T15:13:03;4.20;;;3.90;;
3433;SDS011;1730;41.932;25.548;2022-08-19T15:15:31;7.20;;;4.50;;
3433;SDS011;1730;41.932;25.548;2022-08-19T15:17:56;4.70;;;4.30;;
3433;SDS011;1730;41.932;25.548;2022-08-19T15:20:27;5.30;;;4.90;;
3433;SDS011;1730;41.932;25.548;2022-08-19T15:22:54;5.33;;;5.00;;
3433;SDS011;1730;41.932;25.548;2022-08-19T15:25:23;5.83;;;5.13;;
3433;SDS011;1730;41.932;25.548;2022-08-19T15:27:50;4.83;;;4.53;;
3433;SDS011;1730;41.932;25.548;2022-08-19T15:30:21;5.47;;;5.07;;
3433;SDS011;1730;41.932;25.548;2022-08-19T15:32:58;5.10;;;4.63;;
3433;SDS011;1730;41.932;25.548;2022-08-19T15:35:29;9.00;;;4.60;;
3433;SDS011;1730;41.932;25.548;2022-08-19T15:37:58;5.17;;;4.77;;
3433;SDS011;1730;41.932;25.548;2022-08-19T15:40:24;4.87;;;4.47;;